Terminal Aerodrome Forecast
Issued by NWS

Home | Current Version | Previous Version | Text Only | Print | Product List | Glossary On
Versions: 1 2 3 4 5 6 7 8 9 10 11 12 13 14 15 16 17 18 19 20 21 22 23 24 25 26
054
FTUS41 KPBZ 111120
TAFFKL
TAF
KFKL 111120Z 1112/1212 29012G20KT P6SM SCT029 OVC035
      TEMPO 1114/1118 4SM -SHSN OVC020
     FM120000 27006KT P6SM SCT030
      AMD LTD TO CLD VIS AND WIND=

USA.gov is the U.S. government's official web portal to all federal, state and local government web resources and services.